Time;durP1;ratioP1;P1;durP2;ratioP2;P2;SDS_P1;SDS_P2;PMS_P1;PMS_P2;Temp;Humidity;BMP_temperature;BMP_pressure;BME280_temperature;BME280_humidity;BME280_pressure;Samples;Min_cycle;Max_cycle;Signal;HPM_P1;HPM_P2
2023/01/02 00:00:56;;;;;;;;;;;25.20;99.90;;;;;;5012700;28;19918;-70
2023/01/02 00:03:23;;;;;;;;;;;25.20;99.90;;;;;;5012546;28;19979;-68
2023/01/02 00:05:50;;;;;;;;;;;25.30;99.90;;;;;;5013364;28;19945;-71
2023/01/02 00:08:17;;;;;;;;;;;25.30;99.90;;;;;;5013416;28;19914;-75
2023/01/02 00:10:44;;;;;;;;;;;25.50;99.90;;;;;;5013254;28;20020;-73
2023/01/02 00:13:11;;;;;;;;;;;25.60;99.90;;;;;;5012957;28;19933;-69
2023/01/02 00:15:37;;;;;;;;;;;25.60;99.90;;;;;;5013365;28;20739;-72
2023/01/02 00:18:04;;;;;;;;;;;25.80;99.90;;;;;;5013118;28;19909;-67
2023/01/02 00:20:31;;;;;;;;;;;25.90;99.90;;;;;;5012961;28;20010;-68
2023/01/02 00:22:57;;;;;;;;;;;25.80;99.90;;;;;;5012742;28;20004;-66
2023/01/02 00:25:24;;;;;;;;;;;25.70;99.90;;;;;;5012739;28;20696;-66
2023/01/02 00:27:51;;;;;;;;;;;25.70;99.90;;;;;;5013031;28;19914;-71
2023/01/02 00:30:17;;;;;;;;;;;25.70;99.90;;;;;;5013212;28;19910;-73
2023/01/02 00:32:44;;;;;;;;;;;25.80;99.90;;;;;;5012870;28;19953;-67
2023/01/02 00:35:11;;;;;;;;;;;26.00;99.90;;;;;;5012413;28;19925;-72
2023/01/02 00:37:37;;;;;;;;;;;26.00;99.90;;;;;;5012794;28;20376;-72
2023/01/02 00:40:04;;;;;;;;;;;26.10;99.90;;;;;;5012775;28;20271;-66
2023/01/02 00:42:31;;;;;;;;;;;26.00;99.90;;;;;;5012642;28;19920;-69
2023/01/02 00:44:58;;;;;;;;;;;26.20;99.90;;;;;;5012517;28;19910;-67
2023/01/02 00:47:24;;;;;;;;;;;26.30;99.90;;;;;;5012113;28;20240;-66
2023/01/02 00:49:51;;;;;;;;;;;26.40;99.90;;;;;;5012702;28;19940;-72
2023/01/02 00:52:17;;;;;;;;;;;26.30;99.90;;;;;;5012621;28;19921;-70
2023/01/02 00:54:44;;;;;;;;;;;26.20;99.90;;;;;;5012264;28;19920;-73
2023/01/02 00:57:11;;;;;;;;;;;26.30;99.90;;;;;;5012369;28;20367;-70
2023/01/02 00:59:37;;;;;;;;;;;26.60;99.90;;;;;;5012457;28;19916;-71
2023/01/02 01:02:04;;;;;;;;;;;26.70;99.90;;;;;;5012381;28;20363;-73
2023/01/02 01:04:37;;;;;;;;;;;27.10;99.90;;;;;;5012166;28;20352;-71
2023/01/02 01:07:03;;;;;;;;;;;27.50;99.90;;;;;;5012087;28;19921;-78
2023/01/02 01:09:30;;;;;;;;;;;28.20;99.90;;;;;;5012052;28;20347;-73
2023/01/02 01:11:57;;;;;;;;;;;28.40;99.90;;;;;;5012209;28;19957;-67
2023/01/02 01:14:23;;;;;;;;;;;28.60;99.90;;;;;;5012015;28;19914;-68
2023/01/02 01:16:50;;;;;;;;;;;29.00;99.90;;;;;;5011913;28;19914;-70
2023/01/02 01:19:17;;;;;;;;;;;29.00;99.90;;;;;;5010631;28;19916;-73
2023/01/02 01:21:44;;;;;;;;;;;29.10;99.70;;;;;;5012122;28;19920;-79
2023/01/02 01:24:11;;;;;;;;;;;29.40;99.20;;;;;;5011565;28;19956;-68
2023/01/02 01:26:38;;;;;;;;;;;29.40;99.30;;;;;;5011935;28;20009;-75
2023/01/02 01:29:05;;;;;;;;;;;29.60;99.00;;;;;;5011913;28;20008;-68
2023/01/02 01:31:32;;;;;;;;;;;29.70;98.10;;;;;;5011485;28;19928;-67
2023/01/02 01:33:59;;;;;;;;;;;29.60;98.50;;;;;;5011455;28;19909;-68
2023/01/02 01:36:25;;;;;;;;;;;29.60;98.90;;;;;;5011768;28;19917;-67
2023/01/02 01:38:52;;;;;;;;;;;29.80;99.00;;;;;;5011662;28;19968;-73
2023/01/02 01:41:20;;;;;;;;;;;29.80;98.80;;;;;;5011735;28;19909;-68
2023/01/02 01:43:51;;;;;;;;;;;29.60;99.10;;;;;;5011139;28;19952;-68
2023/01/02 01:46:21;;;;;;;;;;;29.80;98.60;;;;;;5011519;28;19948;-69
2023/01/02 01:48:49;;;;;;;;;;;29.90;98.60;;;;;;5011686;28;19913;-75
2023/01/02 01:51:16;;;;;;;;;;;29.70;98.90;;;;;;5011340;28;19921;-70
2023/01/02 01:53:44;;;;;;;;;;;29.40;99.70;;;;;;5011153;28;20008;-72
2023/01/02 01:56:12;;;;;;;;;;;29.00;99.30;;;;;;5011803;28;19949;-67
2023/01/02 01:58:41;;;;;;;;;;;28.60;99.90;;;;;;5012070;28;19909;-69
2023/01/02 02:01:14;;;;;;;;;;;28.10;99.90;;;;;;5015477;28;20008;-67
2023/01/02 02:03:42;;;;;;;;;;;27.80;99.90;;;;;;5015220;28;20000;-66
2023/01/02 02:06:08;;;;;;;;;;;27.70;99.90;;;;;;5015480;28;19913;-68
2023/01/02 02:08:49;;;;;;;;;;;27.30;99.90;;;;;;5015558;28;19916;-69
2023/01/02 02:11:16;;;;;;;;;;;27.30;99.90;;;;;;5015002;28;19924;-68
2023/01/02 02:13:43;;;;;;;;;;;27.30;99.90;;;;;;5014928;28;20000;-72
2023/01/02 02:16:10;;;;;;;;;;;27.00;99.90;;;;;;5014892;28;19921;-67
2023/01/02 02:18:51;;;;;;;;;;;26.90;99.90;;;;;;5015183;28;19925;-71
2023/01/02 02:21:36;;;;;;;;;;;26.80;99.90;;;;;;5012387;28;19926;-72
2023/01/02 02:24:18;;;;;;;;;;;26.80;99.90;;;;;;5014093;28;20241;-79
2023/01/02 02:26:48;;;;;;;;;;;26.80;99.90;;;;;;5015107;28;19909;-80
2023/01/02 02:29:33;;;;;;;;;;;26.80;99.90;;;;;;5014389;28;20275;-77
2023/01/02 02:32:25;;;;;;;;;;;26.80;99.90;;;;;;5014498;28;20300;-68
2023/01/02 02:34:52;;;;;;;;;;;26.70;99.90;;;;;;4991015;28;20016;-74
2023/01/02 02:37:22;;;;;;;;;;;26.70;99.90;;;;;;5014477;28;19913;-71
2023/01/02 02:40:06;;;;;;;;;;;26.80;99.90;;;;;;5014221;28;20019;-72
2023/01/02 02:42:39;;;;;;;;;;;26.80;99.90;;;;;;5014515;28;19917;-73
2023/01/02 02:45:12;;;;;;;;;;;26.60;99.90;;;;;;5014611;28;19914;-69
2023/01/02 02:47:51;;;;;;;;;;;26.60;99.90;;;;;;5014335;28;19913;-68
2023/01/02 02:50:38;;;;;;;;;;;26.60;99.90;;;;;;5014466;28;19914;-70
2023/01/02 02:53:20;;;;;;;;;;;26.60;99.90;;;;;;5005626;28;20018;-71
2023/01/02 02:55:48;;;;;;;;;;;26.60;99.90;;;;;;5014490;28;20249;-70
2023/01/02 02:58:15;;;;;;;;;;;26.50;99.90;;;;;;5014218;28;20331;-68
2023/01/02 03:00:42;;;;;;;;;;;26.40;99.90;;;;;;5014226;28;20002;-70
2023/01/02 03:03:20;;;;;;;;;;;26.30;99.90;;;;;;5013806;28;19944;-67
2023/01/02 03:06:01;;;;;;;;;;;26.50;99.90;;;;;;5014287;28;19990;-66
2023/01/02 03:08:35;;;;;;;;;;;26.30;99.90;;;;;;5014382;28;19913;-69
2023/01/02 03:11:02;;;;;;;;;;;26.30;99.90;;;;;;5014191;28;19914;-72
2023/01/02 03:13:28;;;;;;;;;;;26.20;99.90;;;;;;5013753;28;19956;-68
2023/01/02 03:16:10;;;;;;;;;;;26.30;99.90;;;;;;5013971;28;19916;-69
2023/01/02 03:18:55;;;;;;;;;;;26.20;99.90;;;;;;5014213;28;19913;-66
2023/01/02 03:21:47;;;;;;;;;;;26.50;99.90;;;;;;5013868;28;19937;-69
2023/01/02 03:24:16;;;;;;;;;;;26.40;99.90;;;;;;4990590;28;19921;-66
2023/01/02 03:26:43;;;;;;;;;;;26.30;99.90;;;;;;5013637;28;20280;-68
2023/01/02 03:29:15;;;;;;;;;;;26.50;99.90;;;;;;5013855;28;20327;-70
2023/01/02 03:31:44;;;;;;;;;;;26.40;99.90;;;;;;5013814;28;19980;-69
2023/01/02 03:34:14;;;;;;;;;;;26.30;99.90;;;;;;5012217;28;19918;-73
2023/01/02 03:36:42;;;;;;;;;;;26.10;99.90;;;;;;5013787;28;19914;-66
2023/01/02 03:39:19;;;;;;;;;;;26.10;99.90;;;;;;5013890;28;19910;-67
2023/01/02 03:41:52;;;;;;;;;;;26.20;99.90;;;;;;5013604;28;19968;-70
2023/01/02 03:44:21;;;;;;;;;;;26.00;99.90;;;;;;5013340;28;19913;-73
2023/01/02 03:46:50;;;;;;;;;;;26.10;99.90;;;;;;5013466;28;20491;-72
2023/01/02 03:49:22;;;;;;;;;;;26.10;99.90;;;;;;5013465;28;19988;-68
2023/01/02 03:51:49;;;;;;;;;;;26.00;99.90;;;;;;5010433;28;19922;-68
2023/01/02 03:54:17;;;;;;;;;;;26.10;99.90;;;;;;5013189;28;19913;-70
2023/01/02 03:56:53;;;;;;;;;;;26.00;99.90;;;;;;5013418;28;20392;-70
2023/01/02 03:59:19;;;;;;;;;;;26.10;99.90;;;;;;5011811;28;19917;-67
2023/01/02 04:01:53;;;;;;;;;;;26.10;99.90;;;;;;5015970;28;19914;-71
2023/01/02 04:04:34;;;;;;;;;;;26.10;99.90;;;;;;5012482;28;19960;-79
2023/01/02 04:07:03;;;;;;;;;;;26.10;99.90;;;;;;5016540;28;19926;-73
2023/01/02 04:09:33;;;;;;;;;;;26.10;99.90;;;;;;5012592;28;19971;-72
2023/01/02 04:12:08;;;;;;;;;;;26.00;99.90;;;;;;5012049;28;19925;-72
2023/01/02 04:14:37;;;;;;;;;;;26.10;99.90;;;;;;5012111;28;19913;-68
2023/01/02 04:17:07;;;;;;;;;;;26.20;99.90;;;;;;5011662;28;20291;-75
2023/01/02 04:19:54;;;;;;;;;;;26.20;99.90;;;;;;5016728;28;19972;-76
2023/01/02 04:22:24;;;;;;;;;;;26.10;99.90;;;;;;5003978;28;19920;-68
2023/01/02 04:24:54;;;;;;;;;;;26.10;99.90;;;;;;5012655;28;19921;-68
2023/01/02 04:27:26;;;;;;;;;;;26.10;99.90;;;;;;5012544;28;19918;-68
2023/01/02 04:29:54;;;;;;;;;;;26.10;99.90;;;;;;5010082;28;20342;-75
2023/01/02 04:32:25;;;;;;;;;;;26.10;99.90;;;;;;5011465;28;19929;-68
2023/01/02 04:34:51;;;;;;;;;;;26.10;99.90;;;;;;5012081;28;20008;-69
2023/01/02 04:37:29;;;;;;;;;;;26.00;99.90;;;;;;5012410;28;19993;-68
2023/01/02 04:39:57;;;;;;;;;;;26.00;99.90;;;;;;5012458;28;19949;-69
2023/01/02 04:42:24;;;;;;;;;;;25.90;99.90;;;;;;5011768;28;20232;-74
2023/01/02 04:44:51;;;;;;;;;;;25.90;99.90;;;;;;5012524;28;20327;-74
2023/01/02 04:47:18;;;;;;;;;;;25.90;99.90;;;;;;5012445;28;20383;-67
2023/01/02 04:49:44;;;;;;;;;;;25.80;99.90;;;;;;5012325;28;19913;-69
2023/01/02 04:52:11;;;;;;;;;;;25.80;99.90;;;;;;5012266;28;19922;-68
2023/01/02 04:54:37;;;;;;;;;;;25.70;99.90;;;;;;5010650;28;19913;-67
2023/01/02 04:57:04;;;;;;;;;;;25.80;99.90;;;;;;5004722;28;19964;-73
2023/01/02 04:59:31;;;;;;;;;;;25.80;99.90;;;;;;5012127;28;19915;-64
2023/01/02 05:01:57;;;;;;;;;;;25.80;99.90;;;;;;5011863;28;19917;-71
2023/01/02 05:04:24;;;;;;;;;;;25.70;99.90;;;;;;5012062;28;19951;-68
2023/01/02 05:06:51;;;;;;;;;;;25.60;99.90;;;;;;5011484;28;19949;-69
2023/01/02 05:09:17;;;;;;;;;;;25.60;99.90;;;;;;5011775;28;19917;-72
2023/01/02 05:11:44;;;;;;;;;;;25.50;99.90;;;;;;5003933;28;19925;-69
2023/01/02 05:14:11;;;;;;;;;;;25.60;99.90;;;;;;5009090;28;20323;-76
2023/01/02 05:16:37;;;;;;;;;;;25.70;99.90;;;;;;5012055;28;19924;-69
2023/01/02 05:19:04;;;;;;;;;;;25.60;99.90;;;;;;5010347;28;19913;-67
2023/01/02 05:24:15;;;;;;;;;;;25.50;99.90;;;;;;5012248;28;20367;-67
2023/01/02 05:26:42;;;;;;;;;;;25.40;99.90;;;;;;5010794;28;19924;-76
2023/01/02 05:29:08;;;;;;;;;;;25.30;99.90;;;;;;5012321;28;19928;-77
2023/01/02 05:31:35;;;;;;;;;;;25.30;99.90;;;;;;5012604;28;20011;-67
2023/01/02 05:34:02;;;;;;;;;;;25.30;99.90;;;;;;5011468;28;19910;-67
2023/01/02 05:36:28;;;;;;;;;;;25.30;99.90;;;;;;5011175;28;19959;-68
2023/01/02 05:38:55;;;;;;;;;;;25.20;99.90;;;;;;5011402;28;19991;-76
2023/01/02 05:41:22;;;;;;;;;;;25.30;99.90;;;;;;5011582;28;19914;-67
2023/01/02 05:43:48;;;;;;;;;;;25.30;99.90;;;;;;5010783;28;20060;-67
2023/01/02 05:46:16;;;;;;;;;;;25.30;99.90;;;;;;5010948;28;19975;-69
2023/01/02 05:48:43;;;;;;;;;;;25.10;99.90;;;;;;5011947;28;20486;-66
2023/01/02 05:51:11;;;;;;;;;;;25.00;99.90;;;;;;5009870;28;19921;-68
2023/01/02 05:53:38;;;;;;;;;;;25.00;99.90;;;;;;5009471;28;19925;-69
2023/01/02 05:56:15;;;;;;;;;;;25.00;99.90;;;;;;5009978;28;19997;-71
2023/01/02 05:58:43;;;;;;;;;;;25.00;99.90;;;;;;5010087;28;20542;-74
2023/01/02 06:01:11;;;;;;;;;;;25.10;99.90;;;;;;5009858;28;19991;-67
2023/01/02 06:03:38;;;;;;;;;;;25.20;99.90;;;;;;5009589;28;19913;-69
2023/01/02 06:06:06;;;;;;;;;;;25.20;99.90;;;;;;5009739;28;19985;-70
2023/01/02 06:08:34;;;;;;;;;;;25.10;99.90;;;;;;5024845;28;19960;-67
2023/01/02 06:11:01;;;;;;;;;;;25.10;99.90;;;;;;5009950;28;19922;-67
2023/01/02 06:13:29;;;;;;;;;;;25.10;99.90;;;;;;5009353;28;20039;-74
2023/01/02 06:15:55;;;;;;;;;;;24.90;99.90;;;;;;5009312;28;20000;-67
2023/01/02 06:18:22;;;;;;;;;;;25.00;99.90;;;;;;5009390;28;19941;-77
2023/01/02 06:20:49;;;;;;;;;;;25.00;99.90;;;;;;5009791;28;19909;-70
2023/01/02 06:23:16;;;;;;;;;;;24.80;99.90;;;;;;5009045;28;20013;-72
2023/01/02 06:25:42;;;;;;;;;;;24.70;99.90;;;;;;5009574;28;19940;-69
2023/01/02 06:28:09;;;;;;;;;;;24.60;99.90;;;;;;5009672;28;20386;-68
2023/01/02 06:30:36;;;;;;;;;;;24.50;99.90;;;;;;5008925;28;19944;-66
2023/01/02 06:33:02;;;;;;;;;;;24.50;99.90;;;;;;5009226;28;19925;-67
2023/01/02 06:35:29;;;;;;;;;;;24.50;99.90;;;;;;5009083;28;19975;-71
2023/01/02 06:37:56;;;;;;;;;;;24.50;99.90;;;;;;5009562;28;19910;-66
2023/01/02 06:40:22;;;;;;;;;;;24.40;99.90;;;;;;5009645;28;20352;-67
2023/01/02 06:42:49;;;;;;;;;;;24.30;99.90;;;;;;5009298;28;19920;-68
2023/01/02 06:45:16;;;;;;;;;;;24.20;99.90;;;;;;5009898;28;19913;-66
2023/01/02 06:47:42;;;;;;;;;;;24.20;99.90;;;;;;5013091;28;19945;-67
2023/01/02 06:50:09;;;;;;;;;;;24.10;99.90;;;;;;5012895;28;19909;-71
2023/01/02 06:52:36;;;;;;;;;;;24.00;99.90;;;;;;5012591;28;20375;-68
2023/01/02 06:55:03;;;;;;;;;;;24.00;99.90;;;;;;5013108;28;19910;-72
2023/01/02 06:57:30;;;;;;;;;;;24.00;99.90;;;;;;5012359;28;20008;-68
2023/01/02 06:59:56;;;;;;;;;;;23.90;99.90;;;;;;5012689;28;19914;-72
2023/01/02 07:02:26;;;;;;;;;;;23.90;99.90;;;;;;5011616;28;20278;-67
2023/01/02 07:04:53;;;;;;;;;;;23.90;99.90;;;;;;5012683;28;20598;-68
2023/01/02 07:07:20;;;;;;;;;;;23.90;99.90;;;;;;5012600;28;19949;-67
2023/01/02 07:09:46;;;;;;;;;;;23.80;99.90;;;;;;5012299;28;20637;-67
2023/01/02 07:12:13;;;;;;;;;;;23.70;99.90;;;;;;5012364;28;19928;-67
2023/01/02 07:14:39;;;;;;;;;;;23.70;99.90;;;;;;5012921;28;19914;-68
2023/01/02 07:17:06;;;;;;;;;;;23.70;99.90;;;;;;5012833;28;19921;-71
2023/01/02 07:19:33;;;;;;;;;;;23.70;99.90;;;;;;5012459;28;20004;-68
2023/01/02 07:21:59;;;;;;;;;;;23.70;99.90;;;;;;5012569;28;20005;-67
2023/01/02 07:24:29;;;;;;;;;;;23.80;99.90;;;;;;5012021;28;19914;-70
2023/01/02 07:26:55;;;;;;;;;;;23.70;99.90;;;;;;5012563;28;19913;-68
2023/01/02 07:29:22;;;;;;;;;;;23.60;99.90;;;;;;5012082;28;19917;-70
2023/01/02 07:31:49;;;;;;;;;;;23.60;99.90;;;;;;5012293;28;19921;-71
2023/01/02 07:34:16;;;;;;;;;;;23.60;99.90;;;;;;5011872;28;19949;-67
2023/01/02 07:36:43;;;;;;;;;;;23.50;99.90;;;;;;5012127;28;19922;-67
2023/01/02 07:39:10;;;;;;;;;;;23.50;99.90;;;;;;5012233;28;20039;-67
2023/01/02 07:41:36;;;;;;;;;;;23.50;99.90;;;;;;5011996;28;20348;-66
2023/01/02 07:44:03;;;;;;;;;;;23.50;99.90;;;;;;5011726;28;19913;-68
2023/01/02 07:46:30;;;;;;;;;;;23.50;99.90;;;;;;5012140;28;19975;-67
2023/01/02 07:48:57;;;;;;;;;;;23.40;99.90;;;;;;5011811;28;20372;-70
2023/01/02 07:51:24;;;;;;;;;;;23.40;99.90;;;;;;5011563;28;20376;-66
2023/01/02 07:53:51;;;;;;;;;;;23.40;99.90;;;;;;5011373;28;20550;-67
2023/01/02 07:56:17;;;;;;;;;;;23.40;99.90;;;;;;5011177;28;19914;-66
2023/01/02 07:58:44;;;;;;;;;;;23.30;99.90;;;;;;5011564;28;19959;-67
2023/01/02 08:01:11;;;;;;;;;;;23.30;99.90;;;;;;5011677;28;20371;-68
2023/01/02 08:03:38;;;;;;;;;;;23.30;99.90;;;;;;5010774;28;19913;-68
2023/01/02 08:06:09;;;;;;;;;;;23.30;99.90;;;;;;5011691;28;20366;-69
2023/01/02 08:08:36;;;;;;;;;;;23.20;99.90;;;;;;5011479;28;20287;-67
2023/01/02 08:11:07;;;;;;;;;;;23.20;99.90;;;;;;5012664;28;19936;-67
2023/01/02 08:13:33;;;;;;;;;;;23.10;99.90;;;;;;5013196;28;19914;-76
2023/01/02 08:16:04;;;;;;;;;;;23.10;99.90;;;;;;5013072;28;19920;-67
2023/01/02 08:18:34;;;;;;;;;;;23.10;99.90;;;;;;5013174;28;19964;-67
2023/01/02 08:21:01;;;;;;;;;;;23.10;99.90;;;;;;5013199;28;19944;-68
2023/01/02 08:23:27;;;;;;;;;;;23.00;99.90;;;;;;5012617;28;19909;-68
2023/01/02 08:25:58;;;;;;;;;;;23.10;99.90;;;;;;5013255;28;19913;-67
2023/01/02 08:28:25;;;;;;;;;;;23.10;99.90;;;;;;5012995;28;19909;-66
2023/01/02 08:30:51;;;;;;;;;;;23.00;99.90;;;;;;5012796;28;20383;-66
2023/01/02 08:33:18;;;;;;;;;;;23.00;99.90;;;;;;5012547;28;19921;-66
2023/01/02 08:35:45;;;;;;;;;;;23.00;99.90;;;;;;5012838;28;19992;-66
2023/01/02 08:38:11;;;;;;;;;;;22.90;99.90;;;;;;5013009;28;19968;-67
2023/01/02 08:40:38;;;;;;;;;;;22.90;99.90;;;;;;5012819;28;19921;-67
2023/01/02 08:43:08;;;;;;;;;;;22.90;99.90;;;;;;5012344;28;20447;-67
2023/01/02 08:45:34;;;;;;;;;;;22.90;99.90;;;;;;5012341;28;19909;-66
2023/01/02 08:48:01;;;;;;;;;;;22.90;99.90;;;;;;5012824;28;19925;-66
2023/01/02 08:50:28;;;;;;;;;;;22.90;99.90;;;;;;5012607;28;19910;-67
2023/01/02 08:52:55;;;;;;;;;;;22.90;99.90;;;;;;5012425;28;19924;-66
2023/01/02 08:55:21;;;;;;;;;;;22.80;99.90;;;;;;5012373;28;19971;-66
2023/01/02 08:57:48;;;;;;;;;;;22.80;99.90;;;;;;5012589;28;20000;-69
2023/01/02 09:00:15;;;;;;;;;;;22.70;99.90;;;;;;5012450;28;20392;-67
2023/01/02 09:02:41;;;;;;;;;;;22.80;99.90;;;;;;5012271;28;20058;-68
2023/01/02 09:05:08;;;;;;;;;;;22.70;99.90;;;;;;5012636;28;20344;-67
2023/01/02 09:07:35;;;;;;;;;;;22.80;99.90;;;;;;5011966;28;20235;-67
2023/01/02 09:10:01;;;;;;;;;;;22.70;99.90;;;;;;5012519;28;19929;-68
2023/01/02 09:12:28;;;;;;;;;;;22.60;99.90;;;;;;5012066;28;19948;-67
2023/01/02 09:14:54;;;;;;;;;;;22.60;99.90;;;;;;5012357;28;20008;-66
2023/01/02 09:17:21;;;;;;;;;;;22.60;99.90;;;;;;5012067;28;19975;-66
2023/01/02 09:19:48;;;;;;;;;;;22.60;99.90;;;;;;5012335;28;19913;-66
2023/01/02 09:22:15;;;;;;;;;;;22.60;99.90;;;;;;5009439;28;19913;-67
2023/01/02 09:24:41;;;;;;;;;;;22.60;99.90;;;;;;5010340;28;19920;-67
2023/01/02 09:27:09;;;;;;;;;;;22.60;99.90;;;;;;5010298;28;19918;-67
2023/01/02 09:29:35;;;;;;;;;;;22.60;99.90;;;;;;5008665;28;19917;-67
2023/01/02 09:32:02;;;;;;;;;;;22.60;99.90;;;;;;5009758;28;20538;-67
2023/01/02 09:34:28;;;;;;;;;;;22.50;99.90;;;;;;5009741;28;19922;-67
2023/01/02 09:36:55;;;;;;;;;;;22.50;99.90;;;;;;5010788;28;19920;-67
2023/01/02 09:39:22;;;;;;;;;;;22.50;99.90;;;;;;5010369;28;19910;-67
2023/01/02 09:41:56;;;;;;;;;;;22.50;99.90;;;;;;5010519;28;19910;-67
2023/01/02 09:44:23;;;;;;;;;;;22.50;99.90;;;;;;5010511;28;19917;-68
2023/01/02 09:47:02;;;;;;;;;;;22.60;99.90;;;;;;5010200;28;19936;-67
2023/01/02 09:49:30;;;;;;;;;;;22.50;99.90;;;;;;5010141;28;19963;-66
2023/01/02 09:51:57;;;;;;;;;;;22.50;99.90;;;;;;5010158;28;19928;-67
2023/01/02 09:54:28;;;;;;;;;;;22.50;99.90;;;;;;5010700;28;19913;-66
2023/01/02 09:57:03;;;;;;;;;;;22.50;99.90;;;;;;5010403;28;19913;-67
2023/01/02 09:59:35;;;;;;;;;;;22.40;99.90;;;;;;5010106;28;19999;-66
2023/01/02 10:02:02;;;;;;;;;;;22.40;99.90;;;;;;5009776;28;19909;-68
2023/01/02 10:04:42;;;;;;;;;;;22.40;99.90;;;;;;5010532;28;19917;-67
2023/01/02 10:07:14;;;;;;;;;;;22.40;99.90;;;;;;5010521;28;19910;-67
2023/01/02 10:09:49;;;;;;;;;;;22.40;99.90;;;;;;5010525;28;19920;-67
2023/01/02 10:12:36;;;;;;;;;;;22.40;99.90;;;;;;5009805;28;20028;-65
2023/01/02 10:15:05;;;;;;;;;;;22.40;99.90;;;;;;4988463;28;19913;-67
2023/01/02 10:17:36;;;;;;;;;;;22.40;99.90;;;;;;5010105;28;20242;-67
2023/01/02 10:20:05;;;;;;;;;;;22.40;99.90;;;;;;5011354;28;19913;-66
2023/01/02 10:22:35;;;;;;;;;;;22.40;99.90;;;;;;5013906;28;19914;-66
2023/01/02 10:25:05;;;;;;;;;;;22.40;99.90;;;;;;5014186;28;19935;-68
2023/01/02 10:27:42;;;;;;;;;;;22.40;99.90;;;;;;5013386;28;20809;-67
2023/01/02 10:30:16;;;;;;;;;;;22.40;99.90;;;;;;5013796;28;19909;-67
2023/01/02 10:32:46;;;;;;;;;;;22.40;99.90;;;;;;5013437;28;20012;-67
2023/01/02 10:35:22;;;;;;;;;;;22.40;99.90;;;;;;5013534;28;19968;-67
2023/01/02 10:37:49;;;;;;;;;;;22.40;99.90;;;;;;5013785;28;19913;-67
2023/01/02 10:40:15;;;;;;;;;;;22.40;99.90;;;;;;5013509;28;19916;-67
2023/01/02 10:42:42;;;;;;;;;;;22.40;99.90;;;;;;5013417;28;19917;-69
2023/01/02 10:45:13;;;;;;;;;;;22.40;99.90;;;;;;5013648;28;20352;-68
2023/01/02 10:47:40;;;;;;;;;;;22.40;99.90;;;;;;5013652;28;20012;-67
2023/01/02 10:50:10;;;;;;;;;;;22.30;99.90;;;;;;5013451;28;19914;-66
2023/01/02 10:52:46;;;;;;;;;;;22.30;99.90;;;;;;5014766;28;20016;-71
2023/01/02 10:55:13;;;;;;;;;;;22.30;99.90;;;;;;5015112;28;19914;-67
2023/01/02 10:57:41;;;;;;;;;;;22.40;99.90;;;;;;5015183;28;19914;-68
2023/01/02 11:00:17;;;;;;;;;;;22.30;99.90;;;;;;5015255;28;20059;-69
2023/01/02 11:02:49;;;;;;;;;;;22.30;99.90;;;;;;5014800;28;20003;-69
2023/01/02 11:05:42;;;;;;;;;;;22.40;99.90;;;;;;5014949;28;19963;-67
2023/01/02 11:08:13;;;;;;;;;;;22.30;99.90;;;;;;5013178;28;19909;-67
2023/01/02 11:10:40;;;;;;;;;;;22.40;99.90;;;;;;5015088;28;19909;-71
2023/01/02 11:13:12;;;;;;;;;;;22.40;99.90;;;;;;5014768;28;19928;-73
2023/01/02 11:16:04;;;;;;;;;;;22.40;99.90;;;;;;5014873;28;19909;-70
2023/01/02 11:18:32;;;;;;;;;;;22.40;99.90;;;;;;5013063;28;20332;-72
2023/01/02 11:21:03;;;;;;;;;;;22.40;99.90;;;;;;5014988;28;19910;-69
2023/01/02 11:23:37;;;;;;;;;;;22.40;99.90;;;;;;5014427;28;19917;-68
2023/01/02 11:26:04;;;;;;;;;;;22.40;99.90;;;;;;5013465;28;20347;-72
2023/01/02 11:28:34;;;;;;;;;;;22.30;99.90;;;;;;5014818;28;19950;-74
2023/01/02 11:31:18;;;;;;;;;;;22.40;99.90;;;;;;5014694;28;19965;-72
2023/01/02 11:33:45;;;;;;;;;;;22.40;99.90;;;;;;5014784;28;19925;-68
2023/01/02 11:36:12;;;;;;;;;;;22.40;99.90;;;;;;5015195;28;19952;-71
2023/01/02 11:38:43;;;;;;;;;;;22.40;99.90;;;;;;5014669;28;19910;-69
2023/01/02 11:44:18;;;;;;;;;;;22.30;99.90;;;;;;5014556;28;19951;-67
2023/01/02 11:46:45;;;;;;;;;;;22.30;99.90;;;;;;5014520;28;19925;-67
2023/01/02 11:49:14;;;;;;;;;;;22.40;99.90;;;;;;5014676;28;19945;-67
2023/01/02 11:51:41;;;;;;;;;;;22.40;99.90;;;;;;5014659;28;19975;-70
2023/01/02 11:54:16;;;;;;;;;;;22.30;99.90;;;;;;5015019;28;20466;-66
2023/01/02 11:56:44;;;;;;;;;;;22.30;99.90;;;;;;5021589;28;19909;-67
2023/01/02 11:59:29;;;;;;;;;;;22.30;99.90;;;;;;5021116;28;19921;-71
2023/01/02 12:02:01;;;;;;;;;;;22.30;99.90;;;;;;5015434;28;19910;-75
2023/01/02 12:04:28;;;;;;;;;;;22.30;99.90;;;;;;5014842;28;19917;-76
2023/01/02 12:07:04;;;;;;;;;;;22.30;99.90;;;;;;5014114;28;19956;-77
2023/01/02 12:09:53;;;;;;;;;;;22.30;99.90;;;;;;5014583;28;20368;-66
2023/01/02 12:12:26;;;;;;;;;;;22.30;99.90;;;;;;4994173;28;19918;-70
2023/01/02 12:15:13;;;;;;;;;;;22.30;99.90;;;;;;5014155;28;19999;-69
2023/01/02 12:17:42;;;;;;;;;;;22.30;99.90;;;;;;4993348;28;20390;-66
2023/01/02 12:20:27;;;;;;;;;;;22.30;99.90;;;;;;5014054;28;19914;-69
2023/01/02 12:23:12;;;;;;;;;;;22.30;99.90;;;;;;5013709;28;19917;-67
2023/01/02 12:25:44;;;;;;;;;;;22.30;99.90;;;;;;5013903;28;19913;-67
2023/01/02 12:28:26;;;;;;;;;;;22.30;99.90;;;;;;5013755;28;19909;-66
2023/01/02 12:31:15;;;;;;;;;;;22.30;99.90;;;;;;5014012;28;19914;-70
2023/01/02 12:33:42;;;;;;;;;;;22.20;99.90;;;;;;4994761;28;20444;-68
2023/01/02 12:36:09;;;;;;;;;;;22.30;99.90;;;;;;5014200;28;20085;-67
2023/01/02 12:38:47;;;;;;;;;;;22.30;99.90;;;;;;5013917;28;19979;-69
2023/01/02 12:41:13;;;;;;;;;;;22.30;99.90;;;;;;5014314;28;20383;-69
2023/01/02 12:43:40;;;;;;;;;;;22.20;99.90;;;;;;5013769;28;20276;-67
2023/01/02 12:46:13;;;;;;;;;;;22.20;99.90;;;;;;5014937;28;19910;-67
2023/01/02 12:48:58;;;;;;;;;;;22.20;99.90;;;;;;5015051;28;20376;-67
2023/01/02 12:51:54;;;;;;;;;;;22.20;99.90;;;;;;5015836;28;19980;-68
2023/01/02 12:54:26;;;;;;;;;;;22.20;99.90;;;;;;5014988;28;20008;-70
2023/01/02 12:57:07;;;;;;;;;;;22.20;99.90;;;;;;5016464;28;19913;-71
2023/01/02 12:59:51;;;;;;;;;;;22.20;99.90;;;;;;5015576;28;19910;-68
2023/01/02 13:02:24;;;;;;;;;;;22.10;99.90;;;;;;5016790;28;20431;-68
2023/01/02 13:04:56;;;;;;;;;;;22.10;99.90;;;;;;5019193;28;20024;-67
2023/01/02 13:07:31;;;;;;;;;;;22.10;99.90;;;;;;5028810;28;19939;-68
2023/01/02 13:10:01;;;;;;;;;;;22.10;99.90;;;;;;5029000;28;19959;-67
2023/01/02 13:12:29;;;;;;;;;;;22.10;99.90;;;;;;5023552;28;19917;-72
2023/01/02 13:14:57;;;;;;;;;;;22.10;99.90;;;;;;5026476;28;19916;-69
2023/01/02 13:17:30;;;;;;;;;;;22.10;99.90;;;;;;5025835;28;19909;-73
2023/01/02 13:20:00;;;;;;;;;;;22.10;99.90;;;;;;5031835;28;19913;-73
2023/01/02 13:22:36;;;;;;;;;;;22.10;99.90;;;;;;5029242;28;19910;-69
2023/01/02 13:25:03;;;;;;;;;;;22.10;99.90;;;;;;5029665;28;20357;-71
2023/01/02 13:27:31;;;;;;;;;;;22.10;99.90;;;;;;5027810;28;20000;-72
2023/01/02 13:30:00;;;;;;;;;;;22.10;99.90;;;;;;5030698;28;19913;-78
2023/01/02 13:32:28;;;;;;;;;;;22.10;99.90;;;;;;5027106;28;19906;-74
2023/01/02 13:34:55;;;;;;;;;;;22.20;99.90;;;;;;5028024;28;19972;-68
2023/01/02 13:37:24;;;;;;;;;;;22.10;99.90;;;;;;5025281;28;20330;-69
2023/01/02 13:39:55;;;;;;;;;;;22.10;99.90;;;;;;5027799;28;19917;-70
2023/01/02 13:45:30;;;;;;;;;;;22.00;99.90;;;;;;5029873;28;19919;-74
2023/01/02 13:47:58;;;;;;;;;;;22.00;99.90;;;;;;5027009;28;19913;-73
2023/01/02 13:50:30;;;;;;;;;;;22.00;99.90;;;;;;5027268;28;19976;-76
2023/01/02 13:53:03;;;;;;;;;;;22.00;99.90;;;;;;5023734;28;20384;-68
2023/01/02 13:55:33;;;;;;;;;;;22.00;99.90;;;;;;5027993;28;19933;-70
2023/01/02 13:58:19;;;;;;;;;;;21.90;99.90;;;;;;5033092;28;19916;-70
2023/01/02 14:00:52;;;;;;;;;;;22.00;99.90;;;;;;5030255;28;19921;-73
2023/01/02 14:03:22;;;;;;;;;;;22.00;99.90;;;;;;5032414;28;19913;-81
2023/01/02 14:05:58;;;;;;;;;;;22.00;99.90;;;;;;5031652;28;19910;-72
2023/01/02 14:08:29;;;;;;;;;;;21.90;99.90;;;;;;5019624;28;19956;-78
2023/01/02 14:11:08;;;;;;;;;;;21.90;99.90;;;;;;5020142;28;20279;-82
2023/01/02 14:13:43;;;;;;;;;;;21.90;99.90;;;;;;5017672;28;20008;-69
2023/01/02 14:16:22;;;;;;;;;;;21.90;99.90;;;;;;5018490;28;19914;-78
2023/01/02 14:19:05;;;;;;;;;;;21.90;99.90;;;;;;5025233;28;19909;-77
2023/01/02 14:21:43;;;;;;;;;;;21.90;99.90;;;;;;5031165;28;19916;-74
2023/01/02 14:24:11;;;;;;;;;;;21.90;99.90;;;;;;5029730;28;19913;-74
2023/01/02 14:26:40;;;;;;;;;;;21.90;99.90;;;;;;5029156;28;19949;-68
2023/01/02 14:29:09;;;;;;;;;;;21.90;99.90;;;;;;5027473;28;20063;-75
2023/01/02 14:31:36;;;;;;;;;;;21.90;99.90;;;;;;5022984;28;19947;-75
2023/01/02 14:34:03;;;;;;;;;;;21.90;99.90;;;;;;5023747;28;19918;-76
2023/01/02 14:36:41;;;;;;;;;;;21.80;99.90;;;;;;5019241;28;19921;-68
2023/01/02 14:39:10;;;;;;;;;;;21.80;99.90;;;;;;5021013;28;19967;-70
2023/01/02 14:44:45;;;;;;;;;;;21.80;99.90;;;;;;5019659;28;19917;-71